Latest Weather Observations for Jimna

IDQ60801

Issued at 6:06 pm EST Monday 22 December 2014 (issued every 30 minutes, with the page automatically refreshed every 10 minutes)

About weather observations | Map of weather stations | Latest weather observations for QLD | Other Formats
Station Details ID: 040651 Name: JIMNA FORESTRY Lat: -26.66 Lon: 152.46 Height: 523.0 m
Data from the previous 72 hours. | See also: Recent months at Jimna
Date/Time
EST
Temp
°C
App
Temp
°C
Dew
Point
Rel
Hum
%
Delta-T
°C
Wind Press
QNH
hPa
Press
MSL
hPa
Rain
since 9 am
mm
Dir
 
Spd
km/h
Gust
km/h
Spd
kts
Gust
kts
22/06:00pm 21.2 - 13.9 63 4.3 - - - - - - - 0.0
22/05:30pm 21.8 - 13.9 61 4.7 - - - - - - - 0.0
22/05:00pm 22.7 - 13.5 56 5.5 - - - - - - - 0.0
22/04:30pm 23.9 - 13.2 51 6.3 - - - - - - - 0.0
22/04:00pm 24.7 - 13.3 49 6.8 - - - - - - - 0.0
22/03:30pm 24.8 - 12.7 47 7.1 - - - - - - - 0.0
22/03:00pm 24.7 - 12.3 46 7.3 - - - - - - - 0.0
22/02:30pm 24.8 - 14.0 51 6.5 - - - - - - - 0.0
22/02:00pm 24.8 - 12.1 45 7.4 - - - - - - - 0.0
22/01:30pm 24.9 - 11.5 43 7.8 - - - - - - - 0.0
22/01:00pm 24.0 - 12.0 47 7.0 - - - - - - - 0.0
22/12:30pm 24.9 - 14.7 53 6.2 - - - - - - - 0.0
22/12:00pm 24.8 - 14.0 51 6.5 - - - - - - - 0.0
22/11:30am 24.5 - 14.0 52 6.3 - - - - - - - 0.0
22/11:00am 23.5 - 13.9 55 5.7 - - - - - - - 0.0
22/10:30am 23.8 - 13.1 51 6.3 - - - - - - - 0.0
22/10:00am 23.3 - 12.6 51 6.3 - - - - - - - 0.0
22/09:30am 21.9 - 12.5 55 5.5 - - - - - - - 0.0
22/09:00am 22.3 - 14.4 61 4.7 - - - - - - - 0.0
22/08:30am 21.4 - 14.1 63 4.3 - - - - - - - 0.0
22/08:00am 20.7 - 13.2 62 4.4 - - - - - - - 0.0
22/07:30am 20.5 - 13.7 65 4.0 - - - - - - - 0.0
22/07:00am 19.9 - 13.8 68 3.6 - - - - - - - 0.0
22/06:30am 18.9 - 14.4 75 2.7 - - - - - - - 0.0
22/06:00am 17.4 - 15.0 86 1.4 - - - - - - - 0.0
22/05:30am 16.5 - 14.7 89 1.1 - - - - - - - 0.0
22/05:00am 16.0 - 14.4 90 0.9 - - - - - - - 0.0
22/04:30am 16.0 - 13.8 87 1.3 - - - - - - - 0.0
22/04:00am 16.6 - 14.4 87 1.3 - - - - - - - 0.0
22/03:30am 17.2 - 14.5 84 1.6 - - - - - - - 0.0
22/03:00am 18.3 - 15.2 82 1.9 - - - - - - - 0.0
22/02:30am 18.4 - 15.3 82 1.9 - - - - - - - 0.0
22/02:00am 18.1 - 15.4 84 1.6 - - - - - - - 0.0
22/01:30am 18.3 - 15.4 83 1.7 - - - - - - - 0.0
22/01:00am 18.5 - 15.6 83 1.8 - - - - - - - 0.0
22/12:30am 18.6 - 15.8 84 1.7 - - - - - - - 0.0
22/12:00am 18.4 - 15.6 84 1.7 - - - - - - - 0.0
 
Date/Time
EST
Temp
°C
App
Temp
°C
Dew
Point
Rel
Hum
%
Delta-T
°C
Wind Press
QNH
hPa
Press
MSL
hPa
Rain
since 9 am
mm
Dir
 
Spd
km/h
Gust
km/h
Spd
kts
Gust
kts
21/11:30pm 18.4 - 15.8 85 1.6 - - - - - - - 0.0
21/11:00pm 18.6 - 15.8 84 1.7 - - - - - - - 0.0
21/10:30pm 18.8 - 15.9 83 1.8 - - - - - - - 0.0
21/10:00pm 18.9 - 15.8 82 1.9 - - - - - - - 0.0
21/09:30pm 19.1 - 16.0 82 1.9 - - - - - - - 0.0
21/09:00pm 19.4 - 16.1 81 2.0 - - - - - - - 0.0
21/08:30pm 19.5 - 16.0 80 2.1 - - - - - - - 0.0
21/08:00pm 19.5 - 15.8 79 2.3 - - - - - - - 0.0
21/07:30pm 19.6 - 15.9 79 2.3 - - - - - - - 0.0
21/07:00pm 20.1 - 16.1 78 2.5 - - - - - - - 0.0
21/06:30pm 20.9 - 15.9 73 3.1 - - - - - - - 0.0
21/06:00pm 21.8 - 16.1 70 3.5 - - - - - - - 0.0
21/05:30pm 22.4 - 16.2 68 3.8 - - - - - - - 0.0
21/05:00pm 24.0 - 16.3 62 4.8 - - - - - - - 0.0
21/04:30pm 24.3 - 15.8 59 5.3 - - - - - - - 0.0
21/04:00pm 25.0 - 16.4 59 5.4 - - - - - - - 0.0
21/03:30pm 24.6 - 15.5 57 5.6 - - - - - - - 0.0
21/03:00pm 24.3 - 16.8 63 4.7 - - - - - - - 0.0
21/02:30pm 24.0 - 15.8 60 5.1 - - - - - - - 0.0
21/02:00pm 25.6 - 16.2 56 5.9 - - - - - - - 0.0
21/01:30pm 24.6 - 15.0 55 5.9 - - - - - - - 0.0
21/01:00pm 23.8 - 16.3 63 4.7 - - - - - - - 0.0
21/12:30pm 23.0 - 16.1 65 4.3 - - - - - - - 0.0
21/12:00pm 23.3 - 15.1 60 5.0 - - - - - - - 0.0
21/11:30am 23.8 - 15.6 60 5.1 - - - - - - - 0.0
21/11:00am 23.7 - 15.7 61 4.9 - - - - - - - 0.0
21/10:30am 23.7 - 15.7 61 4.9 - - - - - - - 0.0
21/10:00am 23.4 - 14.9 59 5.2 - - - - - - - 0.0
21/09:30am 22.7 - 16.5 68 3.9 - - - - - - - 0.0
21/09:00am 21.4 - 15.3 68 3.7 - - - - - - - 0.0
21/08:30am 21.9 - 14.8 64 4.3 - - - - - - - 0.0
21/08:00am 21.1 - 15.2 69 3.6 - - - - - - - 0.0
21/07:30am 21.2 - 16.4 74 3.0 - - - - - - - 0.0
21/07:00am 19.9 - 15.5 76 2.7 - - - - - - - 0.0
21/06:30am 19.5 - 16.0 80 2.1 - - - - - - - 0.0
21/06:00am 18.4 - 15.8 85 1.6 - - - - - - - 0.0
21/05:30am 17.9 - 15.5 86 1.4 - - - - - - - 0.0
21/05:00am 17.9 - 15.5 86 1.4 - - - - - - - 0.0
21/04:30am 18.1 - 15.5 85 1.6 - - - - - - - 0.0
21/04:00am 18.1 - 15.4 84 1.6 - - - - - - - 0.0
21/03:30am 18.3 - 15.4 83 1.7 - - - - - - - 0.0
21/03:00am 18.6 - 15.7 83 1.8 - - - - - - - 0.0
21/02:30am 18.8 - 15.7 82 1.9 - - - - - - - 0.0
21/02:00am 18.9 - 15.9 83 1.8 - - - - - - - 0.0
21/01:30am 18.9 - 15.9 83 1.8 - - - - - - - 0.0
21/01:00am 19.0 - 16.4 85 1.6 - - - - - - - 0.0
21/12:30am 19.2 - 16.6 85 1.6 - - - - - - - 0.0
21/12:00am 19.4 - 16.8 85 1.6 - - - - - - - 0.0
 
Date/Time
EST
Temp
°C
App
Temp
°C
Dew
Point
Rel
Hum
%
Delta-T
°C
Wind Press
QNH
hPa
Press
MSL
hPa
Rain
since 9 am
mm
Dir
 
Spd
km/h
Gust
km/h
Spd
kts
Gust
kts
20/11:30pm 19.5 - 16.7 84 1.7 - - - - - - - 0.0
20/11:00pm 19.6 - 17.0 85 1.6 - - - - - - - 0.0
20/10:30pm 19.5 - 16.9 85 1.6 - - - - - - - 0.0
20/10:00pm 19.4 - 17.0 86 1.5 - - - - - - - 0.0
20/09:30pm 19.5 - 17.1 86 1.5 - - - - - - - 0.0
20/09:00pm 19.7 - 17.1 85 1.6 - - - - - - - 0.0
20/08:30pm 19.9 - 17.3 85 1.6 - - - - - - - 0.0
20/08:00pm 20.0 - 17.2 84 1.7 - - - - - - - 0.0
20/07:30pm 20.0 - 17.4 85 1.6 - - - - - - - 0.0
20/07:00pm 20.1 - 17.5 85 1.6 - - - - - - - 0.0
20/06:30pm 20.4 - 17.4 83 1.9 - - - - - - - 0.0
20/06:00pm 20.5 - 17.5 83 1.9 - - - - - - - 0.0
20/05:30pm 21.0 - 18.2 84 1.8 - - - - - - - 0.0
20/05:00pm 21.0 - 18.4 85 1.7 - - - - - - - 0.0
20/04:30pm 21.6 - 17.6 78 2.5 - - - - - - - 0.0
20/04:00pm 22.5 - 17.2 72 3.3 - - - - - - - 0.0
20/03:30pm 22.8 - 17.3 71 3.5 - - - - - - - 0.0
20/03:00pm 23.7 - 17.4 68 4.0 - - - - - - - 0.0
20/02:30pm 25.2 - 17.7 63 4.8 - - - - - - - 0.0
20/02:00pm 24.7 - 17.4 64 4.6 - - - - - - - 0.0
20/01:30pm 24.7 - 16.9 62 4.9 - - - - - - - 0.0
20/01:00pm 26.1 - 15.8 53 6.4 - - - - - - - 0.0
20/12:30pm 26.5 - 17.3 57 5.9 - - - - - - - 0.0
20/12:00pm 26.7 - 16.3 53 6.5 - - - - - - - 0.0
20/11:30am 25.3 - 15.3 54 6.2 - - - - - - - 0.0
20/11:00am 25.6 - 16.7 58 5.6 - - - - - - - 0.0
20/10:30am 25.3 - 15.3 54 6.2 - - - - - - - 0.0
20/10:00am 25.2 - 16.1 57 5.7 - - - - - - - 0.0
20/09:30am 23.7 - 14.9 57 5.4 - - - - - - - 0.0
20/09:00am 23.8 - 15.3 59 5.2 - - - - - - - 0.0
20/08:30am 23.2 - 15.5 62 4.7 - - - - - - - 0.0
20/08:00am 22.4 - 15.7 66 4.1 - - - - - - - 0.0
20/07:30am 22.2 - 16.0 68 3.8 - - - - - - - 0.0
20/07:00am 21.3 - 15.8 71 3.4 - - - - - - - 0.0
20/06:30am 20.2 - 16.8 81 2.1 - - - - - - - 0.0
20/06:00am 18.3 - 16.6 90 1.0 - - - - - - - 0.0
20/05:30am 17.0 - 15.2 89 1.1 - - - - - - - 0.0
20/05:00am 17.1 - 15.3 89 1.1 - - - - - - - 0.0
20/04:30am 17.4 - 15.6 89 1.1 - - - - - - - 0.0
20/04:00am 17.5 - 15.5 88 1.2 - - - - - - - 0.0
20/03:30am 17.8 - 15.6 87 1.3 - - - - - - - 0.0
20/03:00am 18.0 - 15.3 84 1.6 - - - - - - - 0.0
20/02:30am 18.5 - 15.2 81 2.0 - - - - - - - 0.0
20/02:00am 19.0 - 14.7 76 2.6 - - - - - - - 0.0
20/01:30am 20.0 - 15.2 74 2.9 - - - - - - - 0.0
20/01:00am 19.5 - 16.5 83 1.8 - - - - - - - 0.0
20/12:30am 20.8 - 17.2 80 2.3 - - - - - - - 0.0
20/12:00am 20.9 - 17.7 82 2.0 - - - - - - - 0.0
 
Date/Time
EST
Temp
°C
App
Temp
°C
Dew
Point
Rel
Hum
%
Delta-T
°C
Wind Press
QNH
hPa
Press
MSL
hPa
Rain
since 9 am
mm
Dir
 
Spd
km/h
Gust
km/h
Spd
kts
Gust
kts
19/11:30pm 20.9 - 17.7 82 2.0 - - - - - - - 0.0
19/11:00pm 18.5 - 15.7 84 1.7 - - - - - - - 0.0
19/10:30pm 18.3 - 15.4 83 1.7 - - - - - - - 0.0
19/10:00pm 18.6 - 15.1 80 2.1 - - - - - - - 0.0
19/09:30pm 19.0 - 15.1 78 2.3 - - - - - - - 0.0
19/09:00pm 19.3 - 15.0 76 2.6 - - - - - - - 0.0
19/08:30pm 19.3 - 14.1 72 3.1 - - - - - - - 0.0
19/08:00pm 20.1 - 14.0 68 3.6 - - - - - - - 0.0
19/07:30pm 21.0 - 12.9 60 4.7 - - - - - - - 0.0
19/07:00pm 22.0 - 12.0 53 5.8 - - - - - - - 0.0
19/06:30pm 23.0 - 11.4 48 6.6 - - - - - - - 0.0

Other Formats:

Comma delimited format used in spreadsheet applications
http://www.bom.gov.au/fwo/IDQ60801/IDQ60801.94557.axf

JavaScript Object Notation format (JSON) in row-major order
http://www.bom.gov.au/fwo/IDQ60801/IDQ60801.94557.json